createdAt,value
2022-10-17T00:04:54.178Z,100545.38
2022-10-17T00:09:55.553Z,100550.22
2022-10-17T00:14:56.806Z,100557.06
2022-10-17T00:19:59.865Z,100556.53
2022-10-17T00:25:01.119Z,100564.44
2022-10-17T00:30:04.058Z,100568.63
2022-10-17T00:35:06.430Z,100568.47
2022-10-17T00:40:08.501Z,100566.97
2022-10-17T00:45:23.067Z,100564.59
2022-10-17T00:50:25.046Z,100567.28
2022-10-17T00:55:30.858Z,100571.25
2022-10-17T01:00:32.253Z,100567.63
2022-10-17T01:05:34.284Z,100577.09
2022-10-17T01:11:05.925Z,100583.13
2022-10-17T01:16:32.192Z,100580.84
2022-10-17T01:21:58.285Z,100582.47
2022-10-17T01:27:26.526Z,100584.66
2022-10-17T01:32:49.627Z,100579.91
2022-10-17T01:38:09.610Z,100583.88
2022-10-17T01:43:36.905Z,100576.44
2022-10-17T01:48:42.775Z,100572.50
2022-10-17T01:53:56.978Z,100581.16
2022-10-17T01:59:03.126Z,100571.53
2022-10-17T02:04:07.920Z,100578.59
2022-10-17T02:09:24.483Z,100574.81
2022-10-17T02:14:39.619Z,100570.53
2022-10-17T02:20:12.805Z,100568.59
2022-10-17T02:25:35.006Z,100569.19
2022-10-17T02:30:58.788Z,100581.47
2022-10-17T02:36:06.032Z,100582.03
2022-10-17T02:41:11.226Z,100572.41
2022-10-17T02:46:20.997Z,100580.47
2022-10-17T02:51:52.173Z,100576.97
2022-10-17T02:56:59.206Z,100587.41
2022-10-17T03:02:04.554Z,100586.03
2022-10-17T03:07:05.806Z,100600.00
2022-10-17T03:12:08.505Z,100584.78
2022-10-17T03:17:09.781Z,100595.66
2022-10-17T03:22:11.056Z,100593.44
2022-10-17T03:27:12.366Z,100597.22
2022-10-17T03:32:13.647Z,100604.69
2022-10-17T03:37:15.063Z,100614.03
2022-10-17T03:42:16.317Z,100615.13
2022-10-17T03:47:17.585Z,100625.56
2022-10-17T03:52:19.009Z,100632.94
2022-10-17T03:57:20.386Z,100632.13
2022-10-17T04:02:21.873Z,100638.06
2022-10-17T04:07:23.122Z,100644.97
2022-10-17T04:12:24.420Z,100639.19
2022-10-17T04:17:25.675Z,100641.72
2022-10-17T04:22:27.597Z,100639.44
2022-10-17T04:27:29.073Z,100644.94
2022-10-17T04:32:30.780Z,100647.63
2022-10-17T04:37:32.353Z,100642.56
2022-10-17T04:42:33.644Z,100655.84
2022-10-17T04:47:34.949Z,100666.28
2022-10-17T04:52:37.420Z,100655.56
2022-10-17T04:57:38.692Z,100661.81
2022-10-17T05:02:39.994Z,100649.09
2022-10-17T05:07:41.749Z,100665.75
2022-10-17T05:12:43.122Z,100670.28
2022-10-17T05:17:44.502Z,100676.50
2022-10-17T05:22:45.964Z,100676.78
2022-10-17T05:27:47.607Z,100674.53
2022-10-17T05:32:53.312Z,100676.50
2022-10-17T05:37:54.562Z,100679.91
2022-10-17T05:42:55.952Z,100675.13
2022-10-17T05:47:57.270Z,100678.91
2022-10-17T05:52:58.517Z,100673.97
2022-10-17T05:58:01.076Z,100673.53
2022-10-17T06:03:02.389Z,100675.38
2022-10-17T06:08:03.872Z,100686.66
2022-10-17T06:13:05.186Z,100681.00
2022-10-17T06:18:06.435Z,100697.34
2022-10-17T06:23:07.713Z,100690.88
2022-10-17T06:28:10.418Z,100704.72
2022-10-17T06:33:11.665Z,100704.44
2022-10-17T06:38:12.929Z,100712.03
2022-10-17T06:43:14.603Z,100707.81
2022-10-17T06:48:15.872Z,100719.06
2022-10-17T06:53:17.234Z,100724.13
2022-10-17T06:58:18.478Z,100734.84
2022-10-17T07:03:19.737Z,100731.72
2022-10-17T07:08:21.661Z,100738.00
2022-10-17T07:13:23.617Z,100734.13
2022-10-17T07:18:24.853Z,100735.16
2022-10-17T07:23:26.239Z,100730.50
2022-10-17T07:28:28.762Z,100737.59
2022-10-17T07:33:30.081Z,100756.97
2022-10-17T07:38:31.453Z,100769.59
2022-10-17T07:43:33.870Z,100763.34
2022-10-17T07:48:35.391Z,100770.38
2022-10-17T07:53:42.653Z,100774.41
2022-10-17T07:58:45.228Z,100775.28
2022-10-17T08:03:48.454Z,100774.63
2022-10-17T08:08:49.766Z,100765.47
2022-10-17T08:13:51.029Z,100782.75
2022-10-17T08:18:52.300Z,100764.88
2022-10-17T08:23:53.777Z,100763.72
2022-10-17T08:28:55.220Z,100767.25
2022-10-17T08:33:56.645Z,100764.56
2022-10-17T08:38:57.875Z,100768.75
2022-10-17T08:44:12.235Z,100790.50
2022-10-17T08:49:28.277Z,100789.69
2022-10-17T08:54:47.640Z,100777.03
2022-10-17T08:59:54.134Z,100781.31
2022-10-17T09:05:24.036Z,100773.53
2022-10-17T09:10:43.449Z,100763.59
2022-10-17T09:15:57.389Z,100765.63
2022-10-17T09:21:12.905Z,100781.84
2022-10-17T09:26:14.936Z,100793.59
2022-10-17T09:31:34.611Z,100795.84
2022-10-17T09:36:39.388Z,100790.66
2022-10-17T09:41:52.668Z,100797.03
2022-10-17T09:47:12.548Z,100790.50
2022-10-17T09:52:29.152Z,100794.25
2022-10-17T09:57:52.382Z,100799.19
2022-10-17T10:03:12.540Z,100803.97
2022-10-17T10:08:19.233Z,100816.50
2022-10-17T10:13:20.587Z,100813.06
2022-10-17T10:18:25.158Z,100810.00
2022-10-17T10:23:26.505Z,100812.16
2022-10-17T10:28:36.213Z,100804.28
2022-10-17T10:33:48.087Z,100810.00
2022-10-17T10:38:55.008Z,100804.72
2022-10-17T10:43:56.655Z,100806.75
2022-10-17T10:49:00.402Z,100795.88
2022-10-17T10:54:11.506Z,100807.84
2022-10-17T10:59:25.940Z,100802.16
2022-10-17T11:04:36.131Z,100801.31
2022-10-17T11:09:40.366Z,100799.44
2022-10-17T11:15:06.715Z,100799.09
2022-10-17T11:20:19.690Z,100799.44
2022-10-17T11:25:31.814Z,100799.88
2022-10-17T11:35:49.769Z,100802.34
2022-10-17T11:40:55.878Z,100797.38
2022-10-17T11:46:04.387Z,100786.16
2022-10-17T11:56:46.324Z,100801.69
2022-10-17T12:01:54.817Z,100792.47
2022-10-17T12:07:14.816Z,100793.41
2022-10-17T12:12:28.527Z,100785.69
2022-10-17T12:17:38.887Z,100786.38
2022-10-17T12:22:47.381Z,100777.78
2022-10-17T12:27:50.614Z,100765.91
2022-10-17T12:33:30.492Z,100784.06
2022-10-17T12:38:31.866Z,100778.25
2022-10-17T12:43:39.668Z,100776.91
2022-10-17T12:48:44.198Z,100778.53
2022-10-17T12:54:15.010Z,100780.09
2022-10-17T12:59:26.878Z,100787.78
2022-10-17T13:04:29.700Z,100788.88
2022-10-17T13:09:38.495Z,100795.25
2022-10-17T13:14:42.680Z,100781.41
2022-10-17T13:19:45.722Z,100786.97
2022-10-17T13:24:48.362Z,100770.75
2022-10-17T13:29:49.907Z,100777.69
2022-10-17T13:35:09.704Z,100778.63
2022-10-17T13:45:48.013Z,100793.38
2022-10-17T13:50:53.393Z,100807.84
2022-10-17T13:56:15.702Z,100800.34
2022-10-17T14:01:21.332Z,100792.31
2022-10-17T14:06:27.936Z,100794.56
2022-10-17T14:11:38.680Z,100798.13
2022-10-17T14:16:42.216Z,100801.75
2022-10-17T14:21:49.039Z,100800.63
2022-10-17T14:26:55.817Z,100804.63
2022-10-17T14:32:10.731Z,100807.88
2022-10-17T14:37:24.166Z,100808.97
2022-10-17T14:42:26.170Z,100800.34
2022-10-17T14:47:42.601Z,100814.47
2022-10-17T14:53:02.071Z,100815.00
2022-10-17T14:58:17.639Z,100831.72
2022-10-17T15:03:19.333Z,100835.44
2022-10-17T15:08:23.735Z,100837.28
2022-10-17T15:13:28.042Z,100844.44
2022-10-17T15:18:32.347Z,100847.00
2022-10-17T15:23:33.668Z,100853.56
2022-10-17T15:28:34.931Z,100849.47
2022-10-17T15:33:36.213Z,100853.19
2022-10-17T15:38:37.513Z,100857.81
2022-10-17T15:43:38.779Z,100872.25
2022-10-17T15:48:43.356Z,100866.59
2022-10-17T15:53:45.038Z,100854.97
2022-10-17T15:58:46.814Z,100868.69
2022-10-17T16:03:50.147Z,100863.66
2022-10-17T16:08:52.173Z,100873.59
2022-10-17T16:13:55.741Z,100872.44
2022-10-17T16:18:57.262Z,100880.88
2022-10-17T16:23:59.498Z,100889.97
2022-10-17T16:29:02.996Z,100891.34
2022-10-17T16:34:06.356Z,100901.72
2022-10-17T16:39:07.847Z,100900.97
2022-10-17T16:44:14.022Z,100898.91
2022-10-17T16:49:18.024Z,100901.78
2022-10-17T16:54:19.301Z,100912.09
2022-10-17T16:59:20.760Z,100921.03
2022-10-17T17:04:22.097Z,100925.56
2022-10-17T17:09:23.491Z,100928.81
2022-10-17T17:14:24.946Z,100931.53
2022-10-17T17:19:26.852Z,100939.59
2022-10-17T17:24:28.554Z,100942.03
2022-10-17T17:29:29.922Z,100938.66
2022-10-17T17:34:35.666Z,100954.28
2022-10-17T17:39:36.917Z,100949.59
2022-10-17T17:44:38.254Z,100951.28
2022-10-17T17:49:39.548Z,100948.28
2022-10-17T17:54:41.156Z,100949.03
2022-10-17T17:59:42.522Z,100970.38
2022-10-17T18:04:43.767Z,100967.25
2022-10-17T18:09:45.022Z,100972.59
2022-10-17T18:14:47.725Z,100976.41
2022-10-17T18:19:49.063Z,100972.00
2022-10-17T18:24:50.342Z,100987.66
2022-10-17T18:29:51.574Z,101000.03
2022-10-17T18:34:52.833Z,100990.56
2022-10-17T18:39:55.723Z,101003.34
2022-10-17T18:44:57.021Z,100994.78
2022-10-17T18:49:58.262Z,100998.38
2022-10-17T18:54:59.526Z,100991.63
2022-10-17T19:00:00.772Z,101011.47
2022-10-17T19:05:02.280Z,101011.13
2022-10-17T19:10:03.858Z,101009.13
2022-10-17T19:15:05.418Z,101010.50
2022-10-17T19:20:07.250Z,101003.06
2022-10-17T19:25:09.070Z,101009.66
2022-10-17T19:30:12.453Z,101002.22
2022-10-17T19:35:14.035Z,101006.81
2022-10-17T19:40:15.320Z,100999.53
2022-10-17T19:45:16.694Z,100995.69
2022-10-17T19:50:17.958Z,100987.22
2022-10-17T19:55:19.282Z,100992.69
2022-10-17T20:00:20.536Z,100989.34
2022-10-17T20:05:25.904Z,100988.41
2022-10-17T20:10:28.632Z,100989.41
2022-10-17T20:15:30.069Z,100986.75
2022-10-17T20:20:33.498Z,101001.63
2022-10-17T20:25:37.987Z,100999.91
2022-10-17T20:30:45.420Z,100995.16
2022-10-17T20:35:46.663Z,101001.97
2022-10-17T20:40:47.964Z,101009.53
2022-10-17T20:45:51.238Z,101012.28
2022-10-17T20:50:54.138Z,101013.78
2022-10-17T20:56:08.128Z,101014.47
2022-10-17T21:01:10.682Z,101024.28
2022-10-17T21:06:12.318Z,101011.75
2022-10-17T21:11:15.174Z,101024.59
2022-10-17T21:16:18.780Z,101020.22
2022-10-17T21:21:29.002Z,101025.78
2022-10-17T21:26:33.796Z,101024.25
2022-10-17T21:31:39.839Z,101019.53
2022-10-17T21:36:41.440Z,101020.53
2022-10-17T21:41:44.148Z,101024.44
2022-10-17T21:46:46.585Z,101023.91
2022-10-17T21:51:48.757Z,101026.25
2022-10-17T21:56:50.982Z,101012.06
2022-10-17T22:01:52.353Z,101021.69
2022-10-17T22:06:53.644Z,101017.47
2022-10-17T22:11:56.460Z,101017.97
2022-10-17T22:16:57.697Z,101015.59
2022-10-17T22:21:58.990Z,101012.22
2022-10-17T22:27:00.420Z,101015.72
2022-10-17T22:32:01.977Z,101000.34
2022-10-17T22:37:03.221Z,101006.94
2022-10-17T22:42:04.474Z,101007.97
2022-10-17T22:47:05.786Z,101004.22
2022-10-17T22:52:07.135Z,101002.56
2022-10-17T22:57:08.369Z,101002.88
2022-10-17T23:02:09.619Z,100993.41
2022-10-17T23:07:12.389Z,100985.81
2022-10-17T23:12:13.617Z,100985.13
2022-10-17T23:17:15.310Z,100978.88
2022-10-17T23:22:16.821Z,100988.16
2022-10-17T23:27:18.140Z,100990.34
2022-10-17T23:32:20.870Z,101004.16
2022-10-17T23:37:22.117Z,100996.41
2022-10-17T23:42:23.543Z,100998.09
2022-10-17T23:47:24.964Z,100985.56
2022-10-17T23:52:26.254Z,100990.97
2022-10-17T23:57:27.616Z,100991.59
